sensor_id;sensor_type;location;lat;lon;timestamp;temperature;humidity
4390;DHT22;2209;48.982;8.406;2022-08-19T00:01:19;24.40;96.10
4390;DHT22;2209;48.982;8.406;2022-08-19T00:03:42;24.40;96.50
4390;DHT22;2209;48.982;8.406;2022-08-19T00:06:05;24.40;96.20
4390;DHT22;2209;48.982;8.406;2022-08-19T00:08:28;24.30;96.30
4390;DHT22;2209;48.982;8.406;2022-08-19T00:10:50;24.30;96.30
4390;DHT22;2209;48.982;8.406;2022-08-19T00:13:13;24.30;96.40
4390;DHT22;2209;48.982;8.406;2022-08-19T00:15:36;24.30;96.40
4390;DHT22;2209;48.982;8.406;2022-08-19T00:17:58;24.30;96.50
4390;DHT22;2209;48.982;8.406;2022-08-19T00:20:21;24.30;96.50
4390;DHT22;2209;48.982;8.406;2022-08-19T00:22:44;24.30;96.50
4390;DHT22;2209;48.982;8.406;2022-08-19T00:25:08;24.30;96.50
4390;DHT22;2209;48.982;8.406;2022-08-19T00:27:31;24.30;96.60
4390;DHT22;2209;48.982;8.406;2022-08-19T00:29:53;24.30;96.70
4390;DHT22;2209;48.982;8.406;2022-08-19T00:32:15;24.30;96.80
4390;DHT22;2209;48.982;8.406;2022-08-19T00:34:37;24.30;97.00
4390;DHT22;2209;48.982;8.406;2022-08-19T00:36:59;24.30;97.10
4390;DHT22;2209;48.982;8.406;2022-08-19T00:39:22;24.30;97.20
4390;DHT22;2209;48.982;8.406;2022-08-19T00:41:47;24.30;97.20
4390;DHT22;2209;48.982;8.406;2022-08-19T00:44:13;24.20;97.20
4390;DHT22;2209;48.982;8.406;2022-08-19T00:46:38;24.20;97.30
4390;DHT22;2209;48.982;8.406;2022-08-19T00:49:03;24.20;97.30
4390;DHT22;2209;48.982;8.406;2022-08-19T00:51:29;24.20;97.40
4390;DHT22;2209;48.982;8.406;2022-08-19T00:53:54;24.20;97.40
4390;DHT22;2209;48.982;8.406;2022-08-19T00:56:16;24.20;97.40
4390;DHT22;2209;48.982;8.406;2022-08-19T00:58:40;24.20;97.50
4390;DHT22;2209;48.982;8.406;2022-08-19T01:01:04;24.20;97.50
4390;DHT22;2209;48.982;8.406;2022-08-19T01:03:26;24.20;97.60
4390;DHT22;2209;48.982;8.406;2022-08-19T01:05:50;24.20;97.70
4390;DHT22;2209;48.982;8.406;2022-08-19T01:08:15;24.20;97.80
4390;DHT22;2209;48.982;8.406;2022-08-19T01:10:41;24.20;97.90
4390;DHT22;2209;48.982;8.406;2022-08-19T01:13:05;24.20;97.90
4390;DHT22;2209;48.982;8.406;2022-08-19T01:15:31;24.20;98.00
4390;DHT22;2209;48.982;8.406;2022-08-19T01:17:54;24.20;98.00
4390;DHT22;2209;48.982;8.406;2022-08-19T01:20:19;24.10;98.00
4390;DHT22;2209;48.982;8.406;2022-08-19T01:22:46;24.20;98.10
4390;DHT22;2209;48.982;8.406;2022-08-19T01:25:09;24.20;98.20
4390;DHT22;2209;48.982;8.406;2022-08-19T01:27:37;24.10;98.20
4390;DHT22;2209;48.982;8.406;2022-08-19T01:29:59;24.10;98.30
4390;DHT22;2209;48.982;8.406;2022-08-19T01:32:21;24.10;98.40
4390;DHT22;2209;48.982;8.406;2022-08-19T01:34:43;24.10;98.50
4390;DHT22;2209;48.982;8.406;2022-08-19T01:37:09;24.10;98.60
4390;DHT22;2209;48.982;8.406;2022-08-19T01:39:34;24.10;98.60
4390;DHT22;2209;48.982;8.406;2022-08-19T01:41:56;24.10;98.70
4390;DHT22;2209;48.982;8.406;2022-08-19T01:44:18;24.10;98.80
4390;DHT22;2209;48.982;8.406;2022-08-19T01:46:41;24.10;98.90
4390;DHT22;2209;48.982;8.406;2022-08-19T01:49:06;24.10;98.90
4390;DHT22;2209;48.982;8.406;2022-08-19T01:51:28;24.10;99.00
4390;DHT22;2209;48.982;8.406;2022-08-19T01:53:51;24.10;99.10
4390;DHT22;2209;48.982;8.406;2022-08-19T01:56:16;24.10;99.20
4390;DHT22;2209;48.982;8.406;2022-08-19T01:58:41;24.10;99.30
4390;DHT22;2209;48.982;8.406;2022-08-19T02:01:07;24.10;99.40
4390;DHT22;2209;48.982;8.406;2022-08-19T02:03:29;24.10;99.50
4390;DHT22;2209;48.982;8.406;2022-08-19T02:05:56;24.10;99.50
4390;DHT22;2209;48.982;8.406;2022-08-19T02:08:20;24.00;99.60
4390;DHT22;2209;48.982;8.406;2022-08-19T02:10:43;24.00;99.80
4390;DHT22;2209;48.982;8.406;2022-08-19T02:13:06;24.00;99.90
4390;DHT22;2209;48.982;8.406;2022-08-19T02:15:29;24.00;99.90
4390;DHT22;2209;48.982;8.406;2022-08-19T02:17:51;24.00;99.90
4390;DHT22;2209;48.982;8.406;2022-08-19T02:20:14;23.90;99.90
4390;DHT22;2209;48.982;8.406;2022-08-19T02:22:36;23.90;99.90
4390;DHT22;2209;48.982;8.406;2022-08-19T02:24:58;23.90;99.90
4390;DHT22;2209;48.982;8.406;2022-08-19T02:27:21;23.90;99.90
4390;DHT22;2209;48.982;8.406;2022-08-19T02:29:45;23.90;99.90
4390;DHT22;2209;48.982;8.406;2022-08-19T02:32:07;23.90;99.90
4390;DHT22;2209;48.982;8.406;2022-08-19T02:34:29;23.90;99.90
4390;DHT22;2209;48.982;8.406;2022-08-19T02:36:52;23.90;99.90
4390;DHT22;2209;48.982;8.406;2022-08-19T02:39:14;23.90;99.90
4390;DHT22;2209;48.982;8.406;2022-08-19T02:41:35;23.90;99.90
4390;DHT22;2209;48.982;8.406;2022-08-19T02:43:58;23.80;99.90
4390;DHT22;2209;48.982;8.406;2022-08-19T02:46:25;23.80;99.90
4390;DHT22;2209;48.982;8.406;2022-08-19T02:48:48;23.80;99.90
4390;DHT22;2209;48.982;8.406;2022-08-19T02:51:16;23.80;99.90
4390;DHT22;2209;48.982;8.406;2022-08-19T02:53:38;23.80;99.90
4390;DHT22;2209;48.982;8.406;2022-08-19T02:56:00;23.80;99.90
4390;DHT22;2209;48.982;8.406;2022-08-19T02:58:22;23.80;99.90
4390;DHT22;2209;48.982;8.406;2022-08-19T03:00:47;23.80;99.90
4390;DHT22;2209;48.982;8.406;2022-08-19T03:03:11;23.80;99.90
4390;DHT22;2209;48.982;8.406;2022-08-19T03:05:34;23.80;99.90
4390;DHT22;2209;48.982;8.406;2022-08-19T03:07:56;23.80;99.90
4390;DHT22;2209;48.982;8.406;2022-08-19T03:10:18;23.80;99.90
4390;DHT22;2209;48.982;8.406;2022-08-19T03:12:41;23.80;99.90
4390;DHT22;2209;48.982;8.406;2022-08-19T03:15:04;23.80;99.90
4390;DHT22;2209;48.982;8.406;2022-08-19T03:17:27;23.80;99.90
4390;DHT22;2209;48.982;8.406;2022-08-19T03:19:50;23.80;99.90
4390;DHT22;2209;48.982;8.406;2022-08-19T03:22:12;23.80;99.90
4390;DHT22;2209;48.982;8.406;2022-08-19T03:24:34;23.80;99.90
4390;DHT22;2209;48.982;8.406;2022-08-19T03:26:57;23.70;99.90
4390;DHT22;2209;48.982;8.406;2022-08-19T03:29:19;23.70;99.90
4390;DHT22;2209;48.982;8.406;2022-08-19T03:31:43;23.70;99.90
4390;DHT22;2209;48.982;8.406;2022-08-19T03:34:05;23.70;99.90
4390;DHT22;2209;48.982;8.406;2022-08-19T03:36:29;23.70;99.90
4390;DHT22;2209;48.982;8.406;2022-08-19T03:38:53;23.70;99.90
4390;DHT22;2209;48.982;8.406;2022-08-19T03:41:20;23.70;99.90
4390;DHT22;2209;48.982;8.406;2022-08-19T03:43:43;23.70;99.90
4390;DHT22;2209;48.982;8.406;2022-08-19T03:46:09;23.60;99.90
4390;DHT22;2209;48.982;8.406;2022-08-19T03:48:32;23.70;99.90
4390;DHT22;2209;48.982;8.406;2022-08-19T03:50:55;23.60;99.90
4390;DHT22;2209;48.982;8.406;2022-08-19T03:53:18;23.70;99.90
4390;DHT22;2209;48.982;8.406;2022-08-19T03:55:40;23.70;99.90
4390;DHT22;2209;48.982;8.406;2022-08-19T03:58:03;23.70;99.90
4390;DHT22;2209;48.982;8.406;2022-08-19T04:00:25;23.60;99.90
4390;DHT22;2209;48.982;8.406;2022-08-19T04:02:47;23.60;99.90
4390;DHT22;2209;48.982;8.406;2022-08-19T04:05:09;23.60;99.90
4390;DHT22;2209;48.982;8.406;2022-08-19T04:07:31;23.60;99.90
4390;DHT22;2209;48.982;8.406;2022-08-19T04:09:55;23.60;99.90
4390;DHT22;2209;48.982;8.406;2022-08-19T04:12:17;23.60;99.90
4390;DHT22;2209;48.982;8.406;2022-08-19T04:14:41;23.50;99.90
4390;DHT22;2209;48.982;8.406;2022-08-19T04:17:03;23.60;99.90
4390;DHT22;2209;48.982;8.406;2022-08-19T04:19:26;23.50;99.90
4390;DHT22;2209;48.982;8.406;2022-08-19T04:21:50;23.50;99.90
4390;DHT22;2209;48.982;8.406;2022-08-19T04:24:13;23.50;99.90
4390;DHT22;2209;48.982;8.406;2022-08-19T04:26:37;23.50;99.90
4390;DHT22;2209;48.982;8.406;2022-08-19T04:29:00;23.50;99.90
4390;DHT22;2209;48.982;8.406;2022-08-19T04:31:24;23.50;99.90
4390;DHT22;2209;48.982;8.406;2022-08-19T04:33:47;23.50;99.90
4390;DHT22;2209;48.982;8.406;2022-08-19T04:36:16;23.50;99.90
4390;DHT22;2209;48.982;8.406;2022-08-19T04:38:41;23.50;99.90
4390;DHT22;2209;48.982;8.406;2022-08-19T04:41:03;23.50;99.90
4390;DHT22;2209;48.982;8.406;2022-08-19T04:43:45;23.40;99.90
4390;DHT22;2209;48.982;8.406;2022-08-19T04:46:11;23.40;99.90
4390;DHT22;2209;48.982;8.406;2022-08-19T04:48:34;23.40;99.90
4390;DHT22;2209;48.982;8.406;2022-08-19T04:50:57;23.40;99.90
4390;DHT22;2209;48.982;8.406;2022-08-19T04:53:20;23.40;99.90
4390;DHT22;2209;48.982;8.406;2022-08-19T04:55:42;23.40;99.90
4390;DHT22;2209;48.982;8.406;2022-08-19T04:58:04;23.40;99.90
4390;DHT22;2209;48.982;8.406;2022-08-19T05:00:28;23.40;99.90
4390;DHT22;2209;48.982;8.406;2022-08-19T05:02:50;23.40;99.90
4390;DHT22;2209;48.982;8.406;2022-08-19T05:05:13;23.40;99.90
4390;DHT22;2209;48.982;8.406;2022-08-19T05:07:35;23.40;99.90
4390;DHT22;2209;48.982;8.406;2022-08-19T05:09:57;23.40;99.90
4390;DHT22;2209;48.982;8.406;2022-08-19T05:12:19;23.40;99.90
4390;DHT22;2209;48.982;8.406;2022-08-19T05:14:41;23.40;99.90
4390;DHT22;2209;48.982;8.406;2022-08-19T05:17:05;23.40;99.90
4390;DHT22;2209;48.982;8.406;2022-08-19T05:19:27;23.40;99.90
4390;DHT22;2209;48.982;8.406;2022-08-19T05:22:15;23.30;99.90
4390;DHT22;2209;48.982;8.406;2022-08-19T05:24:56;23.30;99.90
4390;DHT22;2209;48.982;8.406;2022-08-19T05:27:18;23.30;99.90
4390;DHT22;2209;48.982;8.406;2022-08-19T05:29:40;23.30;99.90
4390;DHT22;2209;48.982;8.406;2022-08-19T05:32:05;23.30;99.90
4390;DHT22;2209;48.982;8.406;2022-08-19T05:34:29;23.30;99.90
4390;DHT22;2209;48.982;8.406;2022-08-19T05:36:53;23.30;99.90
4390;DHT22;2209;48.982;8.406;2022-08-19T05:39:19;23.30;99.90
4390;DHT22;2209;48.982;8.406;2022-08-19T05:41:42;23.30;99.90
4390;DHT22;2209;48.982;8.406;2022-08-19T05:44:05;23.30;99.90
4390;DHT22;2209;48.982;8.406;2022-08-19T05:46:30;23.30;99.90
4390;DHT22;2209;48.982;8.406;2022-08-19T05:48:53;23.30;99.90
4390;DHT22;2209;48.982;8.406;2022-08-19T05:51:17;23.30;99.90
4390;DHT22;2209;48.982;8.406;2022-08-19T05:53:39;23.30;99.90
4390;DHT22;2209;48.982;8.406;2022-08-19T05:56:04;23.30;99.90
4390;DHT22;2209;48.982;8.406;2022-08-19T05:58:26;23.30;99.90
4390;DHT22;2209;48.982;8.406;2022-08-19T06:00:48;23.30;99.90
4390;DHT22;2209;48.982;8.406;2022-08-19T06:03:10;23.30;99.90
4390;DHT22;2209;48.982;8.406;2022-08-19T06:05:33;23.30;99.90
4390;DHT22;2209;48.982;8.406;2022-08-19T06:07:56;23.30;99.90
4390;DHT22;2209;48.982;8.406;2022-08-19T06:10:19;23.30;99.90
4390;DHT22;2209;48.982;8.406;2022-08-19T06:12:42;23.30;99.90
4390;DHT22;2209;48.982;8.406;2022-08-19T06:15:07;23.30;99.90
4390;DHT22;2209;48.982;8.406;2022-08-19T06:17:29;23.30;99.90
4390;DHT22;2209;48.982;8.406;2022-08-19T06:19:52;23.30;99.90
4390;DHT22;2209;48.982;8.406;2022-08-19T06:22:15;23.20;99.90
4390;DHT22;2209;48.982;8.406;2022-08-19T06:24:37;23.20;99.90
4390;DHT22;2209;48.982;8.406;2022-08-19T06:27:02;23.20;99.90
4390;DHT22;2209;48.982;8.406;2022-08-19T06:29:27;23.20;99.90
4390;DHT22;2209;48.982;8.406;2022-08-19T06:31:53;23.20;99.90
4390;DHT22;2209;48.982;8.406;2022-08-19T06:34:15;23.20;99.90
4390;DHT22;2209;48.982;8.406;2022-08-19T06:36:40;23.20;99.90
4390;DHT22;2209;48.982;8.406;2022-08-19T06:39:06;23.20;99.90
4390;DHT22;2209;48.982;8.406;2022-08-19T06:41:29;23.20;99.90
4390;DHT22;2209;48.982;8.406;2022-08-19T06:43:52;23.20;99.90
4390;DHT22;2209;48.982;8.406;2022-08-19T06:46:16;23.20;99.90
4390;DHT22;2209;48.982;8.406;2022-08-19T06:48:39;23.20;99.90
4390;DHT22;2209;48.982;8.406;2022-08-19T06:51:01;23.20;99.90
4390;DHT22;2209;48.982;8.406;2022-08-19T06:53:26;23.20;99.90
4390;DHT22;2209;48.982;8.406;2022-08-19T06:55:50;23.20;99.90
4390;DHT22;2209;48.982;8.406;2022-08-19T06:58:21;23.20;99.90
4390;DHT22;2209;48.982;8.406;2022-08-19T07:00:43;23.20;99.90
4390;DHT22;2209;48.982;8.406;2022-08-19T07:03:05;23.20;99.90
4390;DHT22;2209;48.982;8.406;2022-08-19T07:05:28;23.20;99.90
4390;DHT22;2209;48.982;8.406;2022-08-19T07:07:50;23.20;99.90
4390;DHT22;2209;48.982;8.406;2022-08-19T07:10:12;23.30;99.90
4390;DHT22;2209;48.982;8.406;2022-08-19T07:12:37;23.20;99.90
4390;DHT22;2209;48.982;8.406;2022-08-19T07:15:01;23.30;99.90
4390;DHT22;2209;48.982;8.406;2022-08-19T07:17:24;23.30;99.90
4390;DHT22;2209;48.982;8.406;2022-08-19T07:19:46;23.20;99.90
4390;DHT22;2209;48.982;8.406;2022-08-19T07:22:11;23.20;99.90
4390;DHT22;2209;48.982;8.406;2022-08-19T07:24:33;23.30;99.90
4390;DHT22;2209;48.982;8.406;2022-08-19T07:26:58;23.20;99.90
4390;DHT22;2209;48.982;8.406;2022-08-19T07:29:24;23.30;99.90
4390;DHT22;2209;48.982;8.406;2022-08-19T07:31:47;23.30;99.90
4390;DHT22;2209;48.982;8.406;2022-08-19T07:34:11;23.30;99.90
4390;DHT22;2209;48.982;8.406;2022-08-19T07:36:35;23.30;99.90
4390;DHT22;2209;48.982;8.406;2022-08-19T07:39:00;23.30;99.90
4390;DHT22;2209;48.982;8.406;2022-08-19T07:41:25;23.30;99.90
4390;DHT22;2209;48.982;8.406;2022-08-19T07:43:49;23.30;99.90
4390;DHT22;2209;48.982;8.406;2022-08-19T07:46:13;23.30;99.70
4390;DHT22;2209;48.982;8.406;2022-08-19T07:48:36;23.30;99.30
4390;DHT22;2209;48.982;8.406;2022-08-19T07:51:00;23.30;99.10
4390;DHT22;2209;48.982;8.406;2022-08-19T07:53:24;23.30;98.70
4390;DHT22;2209;48.982;8.406;2022-08-19T07:55:46;23.30;98.60
4390;DHT22;2209;48.982;8.406;2022-08-19T07:58:09;23.30;98.50
4390;DHT22;2209;48.982;8.406;2022-08-19T08:00:31;23.30;98.40
4390;DHT22;2209;48.982;8.406;2022-08-19T08:02:54;23.30;98.30
4390;DHT22;2209;48.982;8.406;2022-08-19T08:05:16;23.30;98.30
4390;DHT22;2209;48.982;8.406;2022-08-19T08:07:56;23.30;98.20
4390;DHT22;2209;48.982;8.406;2022-08-19T08:10:35;23.30;98.00
4390;DHT22;2209;48.982;8.406;2022-08-19T08:12:59;23.30;98.00
4390;DHT22;2209;48.982;8.406;2022-08-19T08:15:22;23.30;97.70
4390;DHT22;2209;48.982;8.406;2022-08-19T08:17:45;23.30;97.60
4390;DHT22;2209;48.982;8.406;2022-08-19T08:20:09;23.40;97.50
4390;DHT22;2209;48.982;8.406;2022-08-19T08:22:31;23.30;97.60
4390;DHT22;2209;48.982;8.406;2022-08-19T08:25:15;23.30;97.70
4390;DHT22;2209;48.982;8.406;2022-08-19T08:27:39;23.30;97.70
4390;DHT22;2209;48.982;8.406;2022-08-19T08:30:02;23.30;97.70
4390;DHT22;2209;48.982;8.406;2022-08-19T08:32:25;23.30;97.70
4390;DHT22;2209;48.982;8.406;2022-08-19T08:34:47;23.40;97.60
4390;DHT22;2209;48.982;8.406;2022-08-19T08:37:11;23.40;97.60
4390;DHT22;2209;48.982;8.406;2022-08-19T08:39:33;23.40;97.60
4390;DHT22;2209;48.982;8.406;2022-08-19T08:42:01;23.50;97.50
4390;DHT22;2209;48.982;8.406;2022-08-19T08:44:34;23.50;97.00
4390;DHT22;2209;48.982;8.406;2022-08-19T08:47:04;23.60;97.00
4390;DHT22;2209;48.982;8.406;2022-08-19T08:49:32;23.50;96.90
4390;DHT22;2209;48.982;8.406;2022-08-19T08:52:02;23.60;96.40
4390;DHT22;2209;48.982;8.406;2022-08-19T08:54:30;23.60;96.40
4390;DHT22;2209;48.982;8.406;2022-08-19T08:56:54;23.60;96.20
4390;DHT22;2209;48.982;8.406;2022-08-19T08:59:19;23.50;96.30
4390;DHT22;2209;48.982;8.406;2022-08-19T09:01:42;23.60;96.30
4390;DHT22;2209;48.982;8.406;2022-08-19T09:04:05;23.50;96.10
4390;DHT22;2209;48.982;8.406;2022-08-19T09:06:35;23.50;96.50
4390;DHT22;2209;48.982;8.406;2022-08-19T09:09:03;23.50;96.70
4390;DHT22;2209;48.982;8.406;2022-08-19T09:11:37;23.50;96.50
4390;DHT22;2209;48.982;8.406;2022-08-19T09:14:10;23.50;96.10
4390;DHT22;2209;48.982;8.406;2022-08-19T09:16:36;23.50;96.30
4390;DHT22;2209;48.982;8.406;2022-08-19T09:19:03;23.50;96.20
4390;DHT22;2209;48.982;8.406;2022-08-19T09:21:26;23.50;95.80
4390;DHT22;2209;48.982;8.406;2022-08-19T09:23:48;23.60;95.90
4390;DHT22;2209;48.982;8.406;2022-08-19T09:26:14;23.50;96.20
4390;DHT22;2209;48.982;8.406;2022-08-19T09:28:37;23.50;95.60
4390;DHT22;2209;48.982;8.406;2022-08-19T09:31:03;23.50;95.80
4390;DHT22;2209;48.982;8.406;2022-08-19T09:33:25;23.50;95.80
4390;DHT22;2209;48.982;8.406;2022-08-19T09:35:47;23.60;95.90
4390;DHT22;2209;48.982;8.406;2022-08-19T09:38:09;23.60;96.00
4390;DHT22;2209;48.982;8.406;2022-08-19T09:40:31;23.60;96.10
4390;DHT22;2209;48.982;8.406;2022-08-19T09:42:54;23.60;96.10
4390;DHT22;2209;48.982;8.406;2022-08-19T09:45:21;23.60;96.10
4390;DHT22;2209;48.982;8.406;2022-08-19T09:47:43;23.60;95.50
4390;DHT22;2209;48.982;8.406;2022-08-19T09:50:07;23.70;95.10
4390;DHT22;2209;48.982;8.406;2022-08-19T09:52:29;23.80;94.70
4390;DHT22;2209;48.982;8.406;2022-08-19T09:54:52;23.70;94.60
4390;DHT22;2209;48.982;8.406;2022-08-19T09:57:16;23.80;94.60
4390;DHT22;2209;48.982;8.406;2022-08-19T09:59:39;23.80;94.50
4390;DHT22;2209;48.982;8.406;2022-08-19T10:02:02;23.80;94.10
4390;DHT22;2209;48.982;8.406;2022-08-19T10:04:25;23.90;93.80
4390;DHT22;2209;48.982;8.406;2022-08-19T10:07:07;24.00;93.80
4390;DHT22;2209;48.982;8.406;2022-08-19T10:09:30;24.00;93.40
4390;DHT22;2209;48.982;8.406;2022-08-19T10:11:52;23.90;93.30
4390;DHT22;2209;48.982;8.406;2022-08-19T10:14:14;23.90;93.60
4390;DHT22;2209;48.982;8.406;2022-08-19T10:16:37;23.90;93.70
4390;DHT22;2209;48.982;8.406;2022-08-19T10:19:02;23.90;93.80
4390;DHT22;2209;48.982;8.406;2022-08-19T10:21:27;23.90;93.90
4390;DHT22;2209;48.982;8.406;2022-08-19T10:23:51;23.90;93.60
4390;DHT22;2209;48.982;8.406;2022-08-19T10:26:18;24.10;93.00
4390;DHT22;2209;48.982;8.406;2022-08-19T10:28:40;24.20;92.70
4390;DHT22;2209;48.982;8.406;2022-08-19T10:31:07;24.30;93.30
4390;DHT22;2209;48.982;8.406;2022-08-19T10:33:29;24.40;92.70
4390;DHT22;2209;48.982;8.406;2022-08-19T10:36:00;24.50;92.80
4390;DHT22;2209;48.982;8.406;2022-08-19T10:38:22;24.50;92.60
4390;DHT22;2209;48.982;8.406;2022-08-19T10:40:45;24.50;91.90
4390;DHT22;2209;48.982;8.406;2022-08-19T10:43:07;24.50;91.70
4390;DHT22;2209;48.982;8.406;2022-08-19T10:45:29;24.50;92.00
4390;DHT22;2209;48.982;8.406;2022-08-19T10:47:52;24.40;92.00
4390;DHT22;2209;48.982;8.406;2022-08-19T10:50:14;24.50;91.90
4390;DHT22;2209;48.982;8.406;2022-08-19T10:52:55;24.50;91.40
4390;DHT22;2209;48.982;8.406;2022-08-19T10:55:20;24.50;90.90
4390;DHT22;2209;48.982;8.406;2022-08-19T10:58:00;24.60;91.00
4390;DHT22;2209;48.982;8.406;2022-08-19T11:00:23;24.70;90.70
4390;DHT22;2209;48.982;8.406;2022-08-19T11:02:46;24.70;91.20
4390;DHT22;2209;48.982;8.406;2022-08-19T11:05:12;24.70;91.10
4390;DHT22;2209;48.982;8.406;2022-08-19T11:07:41;24.80;91.10
4390;DHT22;2209;48.982;8.406;2022-08-19T11:10:09;24.80;91.40
4390;DHT22;2209;48.982;8.406;2022-08-19T11:12:31;24.90;90.80
4390;DHT22;2209;48.982;8.406;2022-08-19T11:14:53;25.00;90.90
4390;DHT22;2209;48.982;8.406;2022-08-19T11:17:16;24.90;90.90
4390;DHT22;2209;48.982;8.406;2022-08-19T11:19:38;24.90;91.10
4390;DHT22;2209;48.982;8.406;2022-08-19T11:22:00;25.00;90.60
4390;DHT22;2209;48.982;8.406;2022-08-19T11:24:25;25.00;90.50
4390;DHT22;2209;48.982;8.406;2022-08-19T11:26:51;25.10;90.40
4390;DHT22;2209;48.982;8.406;2022-08-19T11:29:13;25.10;90.40
4390;DHT22;2209;48.982;8.406;2022-08-19T11:31:35;25.10;90.20
4390;DHT22;2209;48.982;8.406;2022-08-19T11:34:02;25.20;90.40
4390;DHT22;2209;48.982;8.406;2022-08-19T11:36:25;25.20;90.60
4390;DHT22;2209;48.982;8.406;2022-08-19T11:38:47;25.10;90.80
4390;DHT22;2209;48.982;8.406;2022-08-19T11:41:10;25.00;90.60
4390;DHT22;2209;48.982;8.406;2022-08-19T11:43:33;24.90;90.70
4390;DHT22;2209;48.982;8.406;2022-08-19T11:45:56;24.80;90.70
4390;DHT22;2209;48.982;8.406;2022-08-19T11:48:19;24.80;90.90
4390;DHT22;2209;48.982;8.406;2022-08-19T11:50:42;24.80;91.30
4390;DHT22;2209;48.982;8.406;2022-08-19T11:53:04;24.70;91.00
4390;DHT22;2209;48.982;8.406;2022-08-19T11:55:27;24.60;91.20
4390;DHT22;2209;48.982;8.406;2022-08-19T11:57:49;24.60;91.10
4390;DHT22;2209;48.982;8.406;2022-08-19T12:00:14;24.70;90.90
4390;DHT22;2209;48.982;8.406;2022-08-19T12:02:36;24.60;90.90
4390;DHT22;2209;48.982;8.406;2022-08-19T12:04:58;24.70;91.10
4390;DHT22;2209;48.982;8.406;2022-08-19T12:07:23;24.80;90.70
4390;DHT22;2209;48.982;8.406;2022-08-19T12:09:45;24.90;90.40
4390;DHT22;2209;48.982;8.406;2022-08-19T12:12:08;25.10;90.20
4390;DHT22;2209;48.982;8.406;2022-08-19T12:14:31;25.30;90.20
4390;DHT22;2209;48.982;8.406;2022-08-19T12:16:54;25.30;90.10
4390;DHT22;2209;48.982;8.406;2022-08-19T12:19:16;25.30;90.00
4390;DHT22;2209;48.982;8.406;2022-08-19T12:21:38;25.20;89.40
4390;DHT22;2209;48.982;8.406;2022-08-19T12:24:02;25.30;88.60
4390;DHT22;2209;48.982;8.406;2022-08-19T12:26:27;25.40;88.10
4390;DHT22;2209;48.982;8.406;2022-08-19T12:28:49;25.30;88.20
4390;DHT22;2209;48.982;8.406;2022-08-19T12:31:11;25.30;89.10
4390;DHT22;2209;48.982;8.406;2022-08-19T12:33:35;25.20;89.50
4390;DHT22;2209;48.982;8.406;2022-08-19T12:36:02;25.10;89.00
4390;DHT22;2209;48.982;8.406;2022-08-19T12:38:24;25.10;89.40
4390;DHT22;2209;48.982;8.406;2022-08-19T12:40:47;25.00;89.90
4390;DHT22;2209;48.982;8.406;2022-08-19T12:43:10;25.00;90.00
4390;DHT22;2209;48.982;8.406;2022-08-19T12:45:33;24.90;90.10
4390;DHT22;2209;48.982;8.406;2022-08-19T12:47:55;24.80;90.00
4390;DHT22;2209;48.982;8.406;2022-08-19T12:50:19;24.80;89.70
4390;DHT22;2209;48.982;8.406;2022-08-19T12:52:42;24.90;86.70
4390;DHT22;2209;48.982;8.406;2022-08-19T12:55:06;25.10;84.50
4390;DHT22;2209;48.982;8.406;2022-08-19T12:57:28;25.10;84.90
4390;DHT22;2209;48.982;8.406;2022-08-19T12:59:53;25.10;85.00
4390;DHT22;2209;48.982;8.406;2022-08-19T13:02:16;25.30;85.10
4390;DHT22;2209;48.982;8.406;2022-08-19T13:04:38;25.20;85.20
4390;DHT22;2209;48.982;8.406;2022-08-19T13:07:03;25.20;85.50
4390;DHT22;2209;48.982;8.406;2022-08-19T13:09:25;25.10;85.30
4390;DHT22;2209;48.982;8.406;2022-08-19T13:11:47;25.20;85.30
4390;DHT22;2209;48.982;8.406;2022-08-19T13:14:09;25.30;84.70
4390;DHT22;2209;48.982;8.406;2022-08-19T13:16:32;25.30;83.50
4390;DHT22;2209;48.982;8.406;2022-08-19T13:18:56;25.40;83.20
4390;DHT22;2209;48.982;8.406;2022-08-19T13:21:19;25.50;82.40
4390;DHT22;2209;48.982;8.406;2022-08-19T13:23:43;25.70;79.80
4390;DHT22;2209;48.982;8.406;2022-08-19T13:26:07;25.70;79.80
4390;DHT22;2209;48.982;8.406;2022-08-19T13:28:30;25.70;79.80
4390;DHT22;2209;48.982;8.406;2022-08-19T13:31:15;25.70;79.80
4390;DHT22;2209;48.982;8.406;2022-08-19T13:33:55;25.70;78.70
4390;DHT22;2209;48.982;8.406;2022-08-19T13:36:17;25.90;76.90
4390;DHT22;2209;48.982;8.406;2022-08-19T13:38:39;26.00;76.10
4390;DHT22;2209;48.982;8.406;2022-08-19T13:41:05;26.10;75.40
4390;DHT22;2209;48.982;8.406;2022-08-19T13:43:28;26.10;75.50
4390;DHT22;2209;48.982;8.406;2022-08-19T13:45:51;26.00;72.20
4390;DHT22;2209;48.982;8.406;2022-08-19T13:48:14;26.20;70.90
4390;DHT22;2209;48.982;8.406;2022-08-19T13:50:41;26.20;70.50
4390;DHT22;2209;48.982;8.406;2022-08-19T13:53:04;26.20;70.40
4390;DHT22;2209;48.982;8.406;2022-08-19T13:55:26;26.20;69.20
4390;DHT22;2209;48.982;8.406;2022-08-19T13:57:51;26.30;68.30
4390;DHT22;2209;48.982;8.406;2022-08-19T14:00:16;26.50;67.50
4390;DHT22;2209;48.982;8.406;2022-08-19T14:02:39;26.60;67.50
4390;DHT22;2209;48.982;8.406;2022-08-19T14:05:01;26.70;67.00
4390;DHT22;2209;48.982;8.406;2022-08-19T14:07:23;26.80;66.80
4390;DHT22;2209;48.982;8.406;2022-08-19T14:09:46;26.90;67.20
4390;DHT22;2209;48.982;8.406;2022-08-19T14:12:08;26.90;67.70
4390;DHT22;2209;48.982;8.406;2022-08-19T14:14:32;26.90;67.70
4390;DHT22;2209;48.982;8.406;2022-08-19T14:16:57;27.10;67.00
4390;DHT22;2209;48.982;8.406;2022-08-19T14:19:20;27.10;67.30
4390;DHT22;2209;48.982;8.406;2022-08-19T14:21:42;27.00;67.20
4390;DHT22;2209;48.982;8.406;2022-08-19T14:24:04;27.10;67.10
4390;DHT22;2209;48.982;8.406;2022-08-19T14:26:27;27.10;67.50
4390;DHT22;2209;48.982;8.406;2022-08-19T14:28:49;27.10;68.60
4390;DHT22;2209;48.982;8.406;2022-08-19T14:31:14;27.20;68.40
4390;DHT22;2209;48.982;8.406;2022-08-19T14:33:39;27.10;68.10
4390;DHT22;2209;48.982;8.406;2022-08-19T14:36:03;27.00;68.10
4390;DHT22;2209;48.982;8.406;2022-08-19T14:38:26;27.10;68.30
4390;DHT22;2209;48.982;8.406;2022-08-19T14:40:48;27.10;68.60
4390;DHT22;2209;48.982;8.406;2022-08-19T14:43:12;27.00;68.30
4390;DHT22;2209;48.982;8.406;2022-08-19T14:45:36;26.90;68.50
4390;DHT22;2209;48.982;8.406;2022-08-19T14:48:00;26.80;69.00
4390;DHT22;2209;48.982;8.406;2022-08-19T14:50:22;26.90;68.10
4390;DHT22;2209;48.982;8.406;2022-08-19T14:52:45;27.00;66.70
4390;DHT22;2209;48.982;8.406;2022-08-19T14:55:08;26.90;67.00
4390;DHT22;2209;48.982;8.406;2022-08-19T14:57:31;26.90;67.40
4390;DHT22;2209;48.982;8.406;2022-08-19T14:59:53;26.90;67.70
4390;DHT22;2209;48.982;8.406;2022-08-19T15:02:15;26.80;68.00
4390;DHT22;2209;48.982;8.406;2022-08-19T15:04:38;26.80;68.20
4390;DHT22;2209;48.982;8.406;2022-08-19T15:07:01;26.70;68.50
4390;DHT22;2209;48.982;8.406;2022-08-19T15:09:24;26.60;68.90
4390;DHT22;2209;48.982;8.406;2022-08-19T15:11:47;26.50;69.20
4390;DHT22;2209;48.982;8.406;2022-08-19T15:14:10;26.40;69.80
4390;DHT22;2209;48.982;8.406;2022-08-19T15:16:32;26.40;71.30
4390;DHT22;2209;48.982;8.406;2022-08-19T15:18:57;26.40;71.90
4390;DHT22;2209;48.982;8.406;2022-08-19T15:21:21;26.30;72.60
4390;DHT22;2209;48.982;8.406;2022-08-19T15:23:44;26.30;73.20
4390;DHT22;2209;48.982;8.406;2022-08-19T15:26:07;26.20;73.60
4390;DHT22;2209;48.982;8.406;2022-08-19T15:28:29;26.20;73.80
4390;DHT22;2209;48.982;8.406;2022-08-19T15:30:52;26.20;73.90
4390;DHT22;2209;48.982;8.406;2022-08-19T15:33:14;26.10;74.00
4390;DHT22;2209;48.982;8.406;2022-08-19T15:35:38;26.10;74.00
4390;DHT22;2209;48.982;8.406;2022-08-19T15:38:03;26.10;73.90
4390;DHT22;2209;48.982;8.406;2022-08-19T15:40:26;26.10;74.10